Time;durP1;ratioP1;P1;durP2;ratioP2;P2;SDS_P1;SDS_P2;PMS_P1;PMS_P2;Temp;Humidity;BMP_temperature;BMP_pressure;BME280_temperature;BME280_humidity;BME280_pressure;Samples;Min_cycle;Max_cycle;Signal;HPM_P1;HPM_P2
2021/12/09 00:01:34;;;;;;;43.97;21.08;;;;;;;3.37;67.95;99064.06;4441509;32;33998;-76
2021/12/09 00:04:06;;;;;;;39.05;19.40;;;;;;;3.55;67.49;99053.78;4454953;32;34796;-76
2021/12/09 00:06:35;;;;;;;46.17;21.45;;;;;;;3.14;68.57;99055.91;4454466;32;33792;-77
2021/12/09 00:09:07;;;;;;;43.50;20.48;;;;;;;3.33;68.50;99050.03;4469467;32;34749;-76
2021/12/09 00:11:46;;;;;;;42.80;20.67;;;;;;;3.70;67.01;99054.72;4443750;32;32906;-76
2021/12/09 00:14:26;;;;;;;42.28;20.27;;;;;;;3.60;66.87;99060.38;4455529;32;32506;-76
2021/12/09 00:16:57;;;;;;;42.67;20.37;;;;;;;3.25;68.18;99085.34;4456308;32;33706;-76
2021/12/09 00:19:25;;;;;;;46.95;21.20;;;;;;;2.92;69.37;99085.47;4458310;32;33791;-76
2021/12/09 00:21:56;;;;;;;46.88;26.70;;;;;;;3.46;67.86;99090.97;4458956;32;33030;-76
2021/12/09 00:24:24;;;;;;;52.80;25.62;;;;;;;3.56;67.32;99083.44;4472244;32;34215;-76
2021/12/09 00:26:52;;;;;;;72.12;34.92;;;;;;;3.80;66.53;99081.59;4459005;32;31650;-77
2021/12/09 00:29:20;;;;;;;65.47;33.15;;;;;;;3.41;67.45;99087.94;4458785;32;32302;-77
2021/12/09 00:31:48;;;;;;;52.53;23.90;;;;;;;3.53;67.43;99077.53;4459043;32;35296;-76
2021/12/09 00:34:19;;;;;;;50.58;22.95;;;;;;;3.89;66.37;99067.78;4458992;32;32302;-77
2021/12/09 00:37:00;;;;;;;47.33;21.45;;;;;;;3.44;66.79;99054.19;4446292;32;32095;-76
2021/12/09 00:39:28;;;;;;;52.95;22.90;;;;;;;3.07;68.90;99047.63;4460601;32;33660;-76
2021/12/09 00:41:56;;;;;;;42.85;21.15;;;;;;;2.67;70.92;99039.66;4458752;32;32953;-76
2021/12/09 00:44:23;;;;;;;42.25;21.15;;;;;;;3.09;68.90;99047.47;4457874;32;33484;-77
2021/12/09 00:46:51;;;;;;;46.15;21.08;;;;;;;3.51;67.43;99039.75;4471334;32;33389;-77
2021/12/09 00:49:20;;;;;;;46.05;21.00;;;;;;;3.54;67.01;99033.94;4458561;32;33805;-77
2021/12/09 00:51:48;;;;;;;45.30;20.27;;;;;;;3.07;68.59;99019.69;4471877;32;34459;-76
2021/12/09 00:54:16;;;;;;;51.03;23.70;;;;;;;2.38;71.48;99016.75;4471420;32;34836;-76
2021/12/09 00:56:44;;;;;;;46.63;22.60;;;;;;;2.42;71.89;99017.25;4458400;32;33589;-76
2021/12/09 00:59:11;;;;;;;51.10;23.67;;;;;;;2.42;71.54;99001.84;4458348;32;33657;-76
2021/12/09 01:01:41;;;;;;;47.30;21.20;;;;;;;2.36;71.87;98999.84;4458820;32;34072;-76
2021/12/09 01:04:09;;;;;;;52.67;22.65;;;;;;;2.68;70.60;99000.72;4458724;32;34523;-76
2021/12/09 01:06:36;;;;;;;46.28;22.65;;;;;;;2.28;72.10;99000.72;4458797;32;32145;-76
2021/12/09 01:09:05;;;;;;;44.03;22.08;;;;;;;2.86;70.37;98999.47;4458716;32;32178;-76
2021/12/09 01:11:36;;;;;;;46.78;21.80;;;;;;;3.16;69.10;99010.50;4471581;32;34579;-77
2021/12/09 01:14:03;;;;;;;46.92;21.50;;;;;;;2.78;70.28;99033.87;4458673;32;32398;-76
2021/12/09 01:16:31;;;;;;;50.65;22.98;;;;;;;2.86;70.27;99025.72;4458628;32;33759;-76
2021/12/09 01:18:59;;;;;;;43.45;21.17;;;;;;;2.95;69.85;99025.50;4457624;32;33741;-76
2021/12/09 01:21:27;;;;;;;43.23;21.40;;;;;;;3.12;69.12;99026.28;4470601;32;35427;-76
2021/12/09 01:23:55;;;;;;;53.75;20.85;;;;;;;3.23;68.71;99023.16;4457657;32;33929;-76
2021/12/09 01:26:26;;;;;;;51.17;22.23;;;;;;;2.98;69.32;99025.16;4457427;32;33467;-76
2021/12/09 01:28:59;;;;;;;48.45;23.25;;;;;;;3.06;69.03;99026.13;4457314;32;32350;-76
2021/12/09 01:31:33;;;;;;;44.95;21.65;;;;;;;2.58;70.37;99026.19;4457290;32;32866;-76
2021/12/09 01:34:04;;;;;;;51.28;21.02;;;;;;;3.05;69.15;99019.03;4457630;32;34910;-76
2021/12/09 01:36:34;;;;;;;45.05;21.73;;;;;;;3.26;68.40;98994.81;4457063;32;32017;-76
2021/12/09 01:39:08;;;;;;;41.97;21.65;;;;;;;3.08;68.56;98991.56;4457583;32;33742;-76
2021/12/09 01:41:35;;;;;;;41.92;20.77;;;;;;;2.95;68.99;98989.44;4457410;32;32786;-76
2021/12/09 01:44:05;;;;;;;45.78;21.90;;;;;;;3.11;68.44;98983.91;4457232;32;32383;-76
2021/12/09 01:46:33;;;;;;;47.65;22.42;;;;;;;2.50;70.89;98972.03;4444617;32;32038;-76
2021/12/09 01:49:01;;;;;;;41.67;19.95;;;;;;;3.07;68.62;98960.91;4456979;32;33858;-76
2021/12/09 01:51:28;;;;;;;44.53;21.12;;;;;;;2.96;68.86;98970.28;4456972;32;34463;-76
2021/12/09 01:53:56;;;;;;;39.22;19.12;;;;;;;2.95;68.73;98965.88;4456831;32;32459;-76
2021/12/09 01:56:26;;;;;;;50.17;21.70;;;;;;;2.56;70.07;98962.38;4455889;32;32549;-76
2021/12/09 01:58:57;;;;;;;42.88;21.35;;;;;;;2.77;69.52;98946.31;4469753;32;33568;-76
2021/12/09 02:01:25;;;;;;;46.53;21.92;;;;;;;2.88;69.01;98943.22;4456934;32;32717;-76
2021/12/09 02:03:54;;;;;;;48.42;19.70;;;;;;;2.83;69.45;98945.62;4457027;32;32573;-76
2021/12/09 02:06:23;;;;;;;41.88;21.05;;;;;;;2.92;68.94;98957.25;4457238;32;34157;-77
2021/12/09 02:08:50;;;;;;;40.53;19.48;;;;;;;2.68;69.54;98950.09;4469848;32;33673;-76
2021/12/09 02:11:18;;;;;;;42.50;21.35;;;;;;;2.42;70.78;98938.72;4456964;32;35285;-76
2021/12/09 02:13:50;;;;;;;46.33;21.25;;;;;;;2.41;71.10;98931.63;4469770;32;34594;-76
2021/12/09 02:16:17;;;;;;;45.63;20.92;;;;;;;2.43;70.86;98908.78;4470110;32;34264;-76
2021/12/09 02:18:45;;;;;;;44.33;19.23;;;;;;;1.96;71.81;98904.19;4454946;32;94655;-76
2021/12/09 02:21:16;;;;;;;50.55;20.95;;;;;;;1.92;72.44;98905.59;4457736;32;32999;-76
2021/12/09 02:23:46;;;;;;;49.42;20.58;;;;;;;1.78;73.14;98921.69;4445028;32;33551;-76
2021/12/09 02:26:16;;;;;;;48.15;20.62;;;;;;;1.80;73.23;98934.00;4484993;32;33766;-76
2021/12/09 02:28:46;;;;;;;39.63;18.05;;;;;;;2.27;71.55;98923.22;4457615;32;32099;-76
2021/12/09 02:31:14;;;;;;;44.80;19.63;;;;;;;2.14;71.69;98931.03;4457661;32;32842;-76
2021/12/09 02:33:42;;;;;;;42.83;19.48;;;;;;;2.42;70.72;98941.44;4470690;32;33854;-76
2021/12/09 02:36:10;;;;;;;47.70;20.33;;;;;;;2.18;71.35;98935.09;4470617;32;33736;-76
2021/12/09 02:38:43;;;;;;;45.08;18.90;;;;;;;1.98;72.20;98921.09;4457749;32;33698;-77
2021/12/09 02:41:16;;;;;;;39.38;18.23;;;;;;;2.04;71.94;98924.97;4458557;32;34492;-76
2021/12/09 02:43:46;;;;;;;38.45;17.92;;;;;;;2.58;70.52;98928.69;4457315;32;33514;-76
2021/12/09 02:46:16;;;;;;;43.35;18.48;;;;;;;2.42;70.81;98904.37;4457749;32;34583;-76
2021/12/09 02:48:44;;;;;;;40.47;18.23;;;;;;;2.34;71.25;98934.19;4457441;32;33268;-76
2021/12/09 02:51:12;;;;;;;42.53;19.08;;;;;;;2.46;70.47;98954.44;4470267;32;34360;-76
2021/12/09 02:53:40;;;;;;;34.45;16.30;;;;;;;2.45;71.06;98965.47;4470310;32;34060;-76
2021/12/09 02:56:12;;;;;;;40.85;16.48;;;;;;;2.79;69.52;98938.88;4457593;32;32118;-76
2021/12/09 02:58:40;;;;;;;40.20;17.55;;;;;;;2.49;69.90;98928.88;4457385;32;33952;-77
2021/12/09 03:01:16;;;;;;;39.45;17.62;;;;;;;2.60;70.28;98920.38;4470079;32;35308;-77
2021/12/09 03:03:51;;;;;;;36.13;16.92;;;;;;;2.23;71.62;98927.28;4470302;32;33873;-76
2021/12/09 03:06:27;;;;;;;39.33;17.08;;;;;;;2.57;70.74;98918.87;4470126;32;33016;-76
2021/12/09 03:08:55;;;;;;;38.35;16.62;;;;;;;2.45;70.98;98930.25;4459643;32;33633;-76
2021/12/09 03:11:23;;;;;;;38.10;17.67;;;;;;;2.64;70.01;98910.84;4459613;32;35155;-76
2021/12/09 03:13:51;;;;;;;33.92;16.80;;;;;;;2.49;70.65;98899.94;4459431;32;33425;-76
2021/12/09 03:16:22;;;;;;;37.25;16.73;;;;;;;2.49;71.13;98913.47;4472593;32;34195;-76
2021/12/09 03:18:55;;;;;;;35.97;16.83;;;;;;;2.78;70.09;98925.50;4459482;32;32415;-76
2021/12/09 03:21:29;;;;;;;33.38;15.63;;;;;;;2.45;71.14;98935.66;4459334;32;33059;-76
2021/12/09 03:23:58;;;;;;;47.00;20.00;;;;;;;2.64;70.37;98933.34;4459467;32;33504;-76
2021/12/09 03:26:29;;;;;;;35.30;16.65;;;;;;;2.78;70.21;98936.34;4459549;32;33605;-76
2021/12/09 03:28:59;;;;;;;34.60;16.50;;;;;;;2.85;69.87;98940.03;4459592;32;34691;-76
2021/12/09 03:31:30;;;;;;;29.65;15.68;;;;;;;2.99;69.58;98928.44;4472343;32;35371;-76
2021/12/09 03:33:59;;;;;;;42.78;19.70;;;;;;;3.08;69.06;98915.66;4459880;32;34632;-76
2021/12/09 03:36:28;;;;;;;36.78;18.12;;;;;;;2.87;69.86;98906.31;4472342;32;33520;-76
2021/12/09 03:39:03;;;;;;;38.20;15.68;;;;;;;2.85;69.63;98902.94;4472502;32;34567;-76
2021/12/09 03:41:31;;;;;;;35.20;16.02;;;;;;;2.37;71.84;98909.47;4472271;32;34355;-76
2021/12/09 03:43:58;;;;;;;34.25;16.23;;;;;;;2.39;71.87;98920.97;4459461;32;34752;-76
2021/12/09 03:46:26;;;;;;;39.40;16.97;;;;;;;2.78;70.55;98920.91;4459266;32;33060;-76
2021/12/09 03:48:54;;;;;;;34.55;15.73;;;;;;;2.70;70.71;98928.25;4459259;32;33044;-76
2021/12/09 03:51:22;;;;;;;34.35;15.55;;;;;;;2.87;70.09;98927.97;4459044;32;32846;-76
2021/12/09 03:53:51;;;;;;;34.05;15.52;;;;;;;2.99;69.22;98931.12;4459223;32;33461;-76
2021/12/09 03:56:20;;;;;;;33.55;15.85;;;;;;;3.33;68.23;98919.00;4459641;32;33680;-76
2021/12/09 03:58:48;;;;;;;33.92;16.15;;;;;;;3.12;68.84;98919.69;4459089;32;34538;-76
2021/12/09 04:01:16;;;;;;;34.28;15.18;;;;;;;2.94;69.77;98939.81;4446324;32;33088;-76
2021/12/09 04:03:44;;;;;;;35.03;15.75;;;;;;;2.84;70.15;98939.19;4472231;32;33986;-76
2021/12/09 04:06:11;;;;;;;32.63;15.80;;;;;;;3.14;69.05;98923.06;4472094;32;33401;-76
2021/12/09 04:08:39;;;;;;;35.83;16.98;;;;;;;2.87;69.94;98921.72;4459263;32;32163;-76
2021/12/09 04:11:10;;;;;;;40.55;16.60;;;;;;;2.68;70.34;98928.44;4459468;32;34854;-76
2021/12/09 04:13:39;;;;;;;35.28;16.85;;;;;;;2.94;69.79;98925.41;4459235;32;32641;-76
2021/12/09 04:16:09;;;;;;;35.72;15.38;;;;;;;3.14;69.14;98915.78;4459040;32;32070;-76
2021/12/09 04:18:39;;;;;;;34.95;15.80;;;;;;;2.81;70.15;98920.56;4468220;32;33733;-76
2021/12/09 04:21:07;;;;;;;37.38;16.10;;;;;;;2.78;69.98;98903.81;4443572;32;32909;-76
2021/12/09 04:23:35;;;;;;;37.15;16.23;;;;;;;2.96;69.57;98921.50;4469290;32;33744;-76
2021/12/09 04:26:03;;;;;;;33.22;15.30;;;;;;;3.27;68.76;98909.72;4456393;32;33746;-76
2021/12/09 04:28:32;;;;;;;34.88;16.35;;;;;;;3.07;69.00;98935.66;4456384;32;33591;-76
2021/12/09 04:31:00;;;;;;;31.77;14.73;;;;;;;3.17;68.73;98941.69;4469159;32;35111;-76
2021/12/09 04:33:29;;;;;;;35.05;14.98;;;;;;;3.33;68.45;98936.13;4469160;32;34014;-76
2021/12/09 04:35:58;;;;;;;32.42;15.02;;;;;;;3.31;67.84;98936.31;4456527;32;33494;-76
2021/12/09 04:38:26;;;;;;;33.60;15.60;;;;;;;3.18;68.77;98932.53;4456382;32;33645;-76
2021/12/09 04:40:54;;;;;;;28.67;14.05;;;;;;;3.09;69.08;98917.34;4456207;32;33877;-76
2021/12/09 04:43:22;;;;;;;33.72;14.25;;;;;;;2.53;71.13;98905.84;4456270;32;33739;-76
2021/12/09 04:45:49;;;;;;;34.03;15.25;;;;;;;2.94;69.81;98907.28;4456266;32;33047;-76
2021/12/09 04:48:17;;;;;;;31.10;15.45;;;;;;;2.97;69.21;98904.22;4456107;32;33804;-77
2021/12/09 04:50:45;;;;;;;32.15;14.98;;;;;;;3.14;69.20;98896.81;4443000;32;33066;-76
2021/12/09 04:53:14;;;;;;;33.40;16.20;;;;;;;3.00;69.49;98902.16;4459061;32;34664;-77
2021/12/09 04:55:42;;;;;;;30.55;14.00;;;;;;;2.86;69.90;98899.19;4459317;32;34333;-78
2021/12/09 04:58:10;;;;;;;31.12;14.52;;;;;;;2.94;69.70;98895.59;4457788;32;33598;-78
2021/12/09 05:00:38;;;;;;;31.65;14.38;;;;;;;2.63;70.59;98901.03;4471738;32;35320;-77
2021/12/09 05:03:09;;;;;;;28.98;14.05;;;;;;;2.59;70.69;98895.16;4471881;32;34809;-79
2021/12/09 05:06:00;;;;;;;27.83;13.70;;;;;;;2.89;69.92;98895.28;4471516;32;32101;-79
2021/12/09 05:08:31;;;;;;;26.85;13.13;;;;;;;2.42;71.21;98906.25;4458104;32;32273;-78
2021/12/09 05:11:12;;;;;;;29.92;13.35;;;;;;;2.80;70.39;98912.63;4459106;32;34353;-78
2021/12/09 05:13:40;;;;;;;27.98;14.05;;;;;;;2.67;70.55;98907.78;4460026;32;33997;-78
2021/12/09 05:16:09;;;;;;;29.85;13.98;;;;;;;3.06;69.23;98898.72;4458851;32;33656;-79
2021/12/09 05:18:39;;;;;;;26.62;13.48;;;;;;;2.95;69.19;98914.38;4471489;32;33597;-83
2021/12/09 05:21:09;;;;;;;28.98;13.07;;;;;;;2.92;68.99;98913.91;4470590;32;34325;-78
2021/12/09 05:23:36;;;;;;;27.00;12.57;;;;;;;2.90;69.58;98913.22;4456472;32;32439;-78
2021/12/09 05:26:08;;;;;;;27.83;14.00;;;;;;;2.94;69.29;98907.28;4456543;32;34766;-78
2021/12/09 05:28:52;;;;;;;27.27;12.88;;;;;;;3.11;68.80;98915.31;4445912;32;32310;-78
2021/12/09 05:34:06;;;;;;;26.73;13.27;;;;;;;3.12;68.79;98896.16;4472116;32;34373;-77
2021/12/09 05:36:34;;;;;;;29.98;13.65;;;;;;;3.20;68.21;98895.25;4470852;32;32900;-77
2021/12/09 05:39:05;;;;;;;28.80;12.75;;;;;;;3.19;68.34;98886.25;4458125;32;33763;-77
2021/12/09 05:41:33;;;;;;;28.62;13.02;;;;;;;3.16;68.24;98880.34;4471382;32;34425;-77
2021/12/09 05:44:01;;;;;;;26.70;12.93;;;;;;;2.98;68.57;98859.81;4458364;32;33329;-77
2021/12/09 05:46:29;;;;;;;27.27;13.55;;;;;;;2.88;69.40;98867.34;4471401;32;33459;-78
2021/12/09 05:48:56;;;;;;;28.50;13.57;;;;;;;2.30;71.37;98870.59;4458300;32;32341;-78
2021/12/09 05:51:25;;;;;;;27.52;13.32;;;;;;;2.86;70.15;98858.56;4457893;32;33339;-78
2021/12/09 05:53:55;;;;;;;31.77;14.27;;;;;;;2.56;70.31;98835.06;4458221;32;33395;-77
2021/12/09 05:56:23;;;;;;;28.87;13.80;;;;;;;2.67;70.28;98831.94;4458531;32;32149;-77
2021/12/09 05:58:51;;;;;;;31.87;15.40;;;;;;;2.52;70.40;98833.75;4445365;32;33226;-78
2021/12/09 06:01:18;;;;;;;32.10;16.15;;;;;;;2.33;71.03;98831.47;4458371;32;34344;-78
2021/12/09 06:03:46;;;;;;;44.80;15.15;;;;;;;2.42;71.13;98843.97;4458185;32;34044;-77
2021/12/09 06:06:14;;;;;;;38.72;16.85;;;;;;;2.16;72.32;98833.44;4454016;32;33186;-78
2021/12/09 06:08:44;;;;;;;39.95;17.15;;;;;;;1.92;73.17;98851.47;4435376;32;32218;-78
2021/12/09 06:11:12;;;;;;;35.35;17.30;;;;;;;2.15;73.14;98847.97;4444861;32;34150;-78
2021/12/09 06:13:40;;;;;;;38.25;17.30;;;;;;;2.25;72.39;98843.19;4445706;32;32444;-78
2021/12/09 06:16:08;;;;;;;42.40;18.15;;;;;;;2.30;72.09;98832.69;4439013;32;32966;-78
2021/12/09 06:18:36;;;;;;;35.70;17.15;;;;;;;2.31;72.48;98837.91;4440535;32;34565;-78
2021/12/09 06:21:05;;;;;;;43.08;18.08;;;;;;;2.33;72.44;98836.91;4451741;32;34430;-78
2021/12/09 06:23:32;;;;;;;41.13;18.62;;;;;;;2.77;70.89;98824.41;4439206;32;33915;-78
2021/12/09 06:26:00;;;;;;;41.70;19.70;;;;;;;2.22;72.95;98822.72;4439201;32;34178;-78
2021/12/09 06:28:28;;;;;;;40.83;20.20;;;;;;;2.51;72.19;98823.94;4439169;32;32141;-78
2021/12/09 06:30:58;;;;;;;36.90;17.92;;;;;;;2.05;73.54;98820.28;4439220;32;33139;-78
2021/12/09 06:33:26;;;;;;;42.28;17.98;;;;;;;2.15;73.23;98819.03;4440136;32;33223;-77
2021/12/09 06:35:53;;;;;;;38.60;18.40;;;;;;;2.58;71.85;98809.50;4455050;32;33501;-76
2021/12/09 06:38:21;;;;;;;38.03;18.02;;;;;;;2.65;71.23;98801.47;4441450;32;32104;-77
2021/12/09 06:40:49;;;;;;;37.47;17.48;;;;;;;2.41;71.77;98794.38;4426565;32;32708;-74
2021/12/09 06:43:17;;;;;;;37.50;17.23;;;;;;;2.43;72.32;98796.91;4453877;32;33953;-77
2021/12/09 06:45:45;;;;;;;33.20;15.80;;;;;;;2.41;71.90;98793.53;4450280;32;34305;-77
2021/12/09 06:48:13;;;;;;;34.67;16.73;;;;;;;2.45;72.09;98805.69;4445177;32;34446;-77
2021/12/09 06:50:42;;;;;;;38.65;17.02;;;;;;;2.63;71.23;98812.47;4442745;32;35179;-77
2021/12/09 06:53:12;;;;;;;33.90;16.33;;;;;;;2.27;72.17;98814.09;4464749;32;33796;-77
2021/12/09 06:55:40;;;;;;;34.72;16.33;;;;;;;2.61;71.64;98821.81;4449356;32;33696;-77
2021/12/09 06:58:08;;;;;;;35.60;16.65;;;;;;;2.34;72.59;98825.91;4446075;32;33667;-78
2021/12/09 07:00:41;;;;;;;39.05;17.58;;;;;;;2.19;72.55;98839.34;4441203;32;34623;-78
2021/12/09 07:03:10;;;;;;;42.37;17.63;;;;;;;2.21;72.59;98834.59;4454213;32;34666;-78
2021/12/09 07:05:39;;;;;;;50.20;20.45;;;;;;;2.33;72.74;98839.59;4448476;32;32022;-78
2021/12/09 07:08:06;;;;;;;44.17;19.73;;;;;;;2.57;71.89;98847.59;4454138;32;33793;-77
2021/12/09 07:10:35;;;;;;;31.90;15.80;;;;;;;2.34;72.52;98838.59;4454126;32;35088;-77
2021/12/09 07:13:04;;;;;;;34.97;16.85;;;;;;;2.45;71.92;98843.59;4441065;32;33751;-78
2021/12/09 07:15:32;;;;;;;36.40;16.75;;;;;;;2.55;71.57;98852.34;4440896;32;33406;-77
2021/12/09 07:18:00;;;;;;;36.15;18.10;;;;;;;2.35;72.55;98845.69;4453811;32;33765;-77
2021/12/09 07:20:28;;;;;;;35.38;16.65;;;;;;;1.97;73.43;98856.34;4453711;32;35120;-78
2021/12/09 07:22:57;;;;;;;35.92;16.60;;;;;;;2.19;73.04;98839.34;4453641;32;33892;-78
2021/12/09 07:25:26;;;;;;;30.85;16.17;;;;;;;2.37;72.65;98840.94;4441387;32;33558;-78
2021/12/09 07:27:55;;;;;;;37.93;18.67;;;;;;;2.50;71.44;98835.78;4449729;32;34573;-78
2021/12/09 07:30:24;;;;;;;42.47;20.23;;;;;;;2.36;72.40;98828.41;4445301;32;32940;-78
2021/12/09 07:32:52;;;;;;;40.70;17.97;;;;;;;2.56;72.19;98816.12;4442192;32;33922;-78
2021/12/09 07:35:19;;;;;;;37.00;17.33;;;;;;;2.20;73.22;98811.25;4452316;32;32169;-78
2021/12/09 07:37:47;;;;;;;32.83;15.15;;;;;;;2.19;73.37;98817.69;4440994;32;34335;-77
2021/12/09 07:40:17;;;;;;;37.90;15.38;;;;;;;2.54;72.38;98810.03;4440896;32;32944;-78
2021/12/09 07:42:45;;;;;;;32.28;15.65;;;;;;;2.53;72.20;98828.16;4450805;32;33959;-78
2021/12/09 07:45:13;;;;;;;36.28;16.45;;;;;;;1.87;74.83;98807.03;4440912;32;32526;-77
2021/12/09 07:47:43;;;;;;;34.22;16.02;;;;;;;2.06;74.30;98805.72;4440913;32;33752;-77
2021/12/09 11:49:54;;;;;;;92.37;34.03;;;;;;;0.67;91.70;98651.28;4538871;26;201386;-75
2021/12/09 11:52:22;;;;;;;136.70;45.13;;;;;;;1.21;89.21;98637.97;4443053;32;33320;-75
2021/12/09 11:54:58;;;;;;;187.70;57.67;;;;;;;1.71;85.25;98623.16;4464611;32;34484;-76
2021/12/09 11:57:37;;;;;;;67.03;31.87;;;;;;;2.22;82.65;98617.03;4439849;32;34052;-77
2021/12/09 12:21:13;;;;;;;38.83;18.25;;;;;;;2.94;77.64;98583.94;4464994;32;34317;-76
2021/12/09 12:38:30;;;;;;;39.65;17.30;;;;;;;3.48;75.55;98576.28;4465240;32;33305;-76
2021/12/09 12:41:06;;;;;;;36.15;18.12;;;;;;;3.41;75.54;98578.06;4465166;32;34651;-77
2021/12/09 12:43:41;;;;;;;39.80;19.85;;;;;;;3.48;75.79;98597.13;4464790;32;34455;-76
2021/12/09 12:46:31;;;;;;;46.00;22.73;;;;;;;3.50;75.97;98598.63;4452418;32;34457;-76
2021/12/09 12:49:09;;;;;;;40.97;22.23;;;;;;;3.73;74.38;98605.78;4464863;32;33325;-76
2021/12/09 12:51:50;;;;;;;43.97;24.45;;;;;;;3.87;74.11;98604.88;4464759;32;34355;-76
2021/12/09 12:54:40;;;;;;;121.18;66.03;;;;;;;3.84;73.67;98624.28;4464743;32;34336;-76
2021/12/09 12:57:16;;;;;;;48.80;20.30;;;;;;;4.10;72.70;98624.53;4453879;32;33631;-76
2021/12/09 12:59:46;;;;;;;61.25;30.23;;;;;;;3.87;73.10;98623.88;4445449;32;33174;-76
2021/12/09 13:05:23;;;;;;;37.20;19.37;;;;;;;3.95;72.80;98615.59;4427231;32;33032;-76
2021/12/09 13:11:02;;;;;;;45.70;18.45;;;;;;;4.09;76.41;98606.53;4437949;32;33303;-75
2021/12/09 13:13:55;;;;;;;37.08;19.55;;;;;;;3.98;73.09;98609.78;4436734;32;32102;-75
2021/12/09 13:19:19;;;;;;;54.83;27.48;;;;;;;3.27;75.04;98606.06;4438655;32;33752;-75
2021/12/09 13:22:00;;;;;;;37.50;18.23;;;;;;;3.30;75.53;98598.37;4438448;32;33435;-75
2021/12/09 13:27:11;;;;;;;37.15;16.95;;;;;;;3.55;74.38;98590.75;4438780;32;35269;-75
2021/12/09 13:48:59;;;;;;;43.97;24.12;;;;;;;3.65;72.73;98566.03;4437543;32;35213;-75
2021/12/09 13:54:23;;;;;;;;;;;;;;;3.00;75.77;98576.94;4440430;32;31627;-76
2021/12/09 13:57:04;;;;;;;35.93;17.80;;;;;;;3.33;74.69;98564.62;4417569;32;32371;-75
2021/12/09 13:59:34;;;;;;;37.45;17.23;;;;;;;3.49;73.76;98567.09;4426283;32;34570;-76
2021/12/09 14:02:14;;;;;;;39.65;18.85;;;;;;;3.00;75.91;98566.09;4422124;32;32445;-75
2021/12/09 14:04:41;;;;;;;35.65;18.40;;;;;;;2.88;76.73;98560.31;4444844;32;33752;-75
2021/12/09 14:07:19;;;;;;;36.70;19.00;;;;;;;2.88;76.78;98563.00;4438466;32;33227;-75
2021/12/09 14:09:58;;;;;;;37.17;18.10;;;;;;;2.86;76.88;98546.09;4440751;32;34753;-75
2021/12/09 14:12:31;;;;;;;33.92;18.70;;;;;;;2.71;77.98;98554.22;4423880;32;33398;-75
2021/12/09 14:15:07;;;;;;;36.67;18.90;;;;;;;2.37;79.50;98548.53;4438535;32;33141;-75
2021/12/09 14:17:41;;;;;;;;;;;;;;;2.65;78.58;98542.28;4416834;32;33796;-76
2021/12/09 14:20:20;;;;;;;40.63;21.00;;;;;;;2.19;79.76;98541.59;4433620;32;34564;-75
2021/12/09 14:22:50;;;;;;;42.08;24.60;;;;;;;2.09;80.95;98541.00;4441217;32;34108;-75
2021/12/09 14:25:28;;;;;;;39.40;20.10;;;;;;;2.24;80.47;98544.59;4420178;32;31543;-75
2021/12/09 14:27:56;;;;;;;43.87;21.97;;;;;;;2.40;79.85;98540.03;4439876;32;33765;-75
2021/12/09 14:30:25;;;;;;;44.43;22.43;;;;;;;2.42;79.75;98546.13;4414181;32;33014;-75
2021/12/09 14:32:56;;;;;;;45.17;24.27;;;;;;;2.31;80.35;98550.12;4439672;32;34564;-75
2021/12/09 14:35:29;;;;;;;43.70;21.27;;;;;;;2.45;79.44;98568.25;4424805;32;33969;-75
2021/12/09 14:37:58;;;;;;;39.95;20.90;;;;;;;2.75;78.71;98573.66;4439850;32;33578;-76
2021/12/09 14:40:43;;;;;;;33.10;17.90;;;;;;;2.78;78.24;98571.44;4427399;32;35148;-75
2021/12/09 14:43:14;;;;;;;33.83;18.23;;;;;;;2.63;79.12;98554.31;4439927;32;33539;-75
2021/12/09 14:46:09;;;;;;;35.78;17.58;;;;;;;3.01;77.59;98554.22;4424835;32;34049;-75
2021/12/09 14:48:45;;;;;;;34.92;16.80;;;;;;;3.25;76.39;98575.59;4439618;32;33122;-76
2021/12/09 14:51:26;;;;;;;42.53;21.25;;;;;;;2.58;78.48;98573.03;4426445;32;34385;-75
2021/12/09 14:54:14;;;;;;;35.90;17.33;;;;;;;3.36;75.80;98572.38;4401963;32;32410;-76
2021/12/09 14:56:48;;;;;;;39.88;19.45;;;;;;;3.40;75.28;98565.53;4401724;32;32934;-76
2021/12/09 14:59:22;;;;;;;38.07;18.63;;;;;;;3.53;74.87;98567.56;4434090;32;34192;-76
2021/12/09 15:02:14;;;;;;;39.97;19.77;;;;;;;3.59;74.66;98573.06;4432748;32;35229;-76
2021/12/09 15:05:02;;;;;;;39.55;18.02;;;;;;;3.56;74.73;98573.44;4437490;32;34542;-76
2021/12/09 15:07:46;;;;;;;36.72;18.15;;;;;;;3.48;74.93;98579.00;4399849;32;32723;-76
2021/12/09 15:10:18;;;;;;;35.95;18.95;;;;;;;3.81;73.75;98576.66;4424645;32;32600;-76
2021/12/09 15:12:49;;;;;;;39.15;19.40;;;;;;;4.02;73.09;98583.09;4412578;32;34458;-75
2021/12/09 15:15:25;;;;;;;31.85;17.02;;;;;;;3.93;72.90;98587.81;4424972;32;34508;-76
2021/12/09 15:18:09;;;;;;;33.97;16.65;;;;;;;3.89;73.36;98572.97;4413260;32;33313;-76
2021/12/09 15:20:50;;;;;;;31.77;17.73;;;;;;;4.06;72.76;98584.37;4433917;32;34456;-75
2021/12/09 15:23:41;;;;;;;43.97;22.85;;;;;;;4.47;73.03;98584.53;4401199;32;33871;-75
2021/12/09 15:26:24;;;;;;;36.03;19.77;;;;;;;4.59;72.09;98588.34;4431315;32;33854;-75
2021/12/09 15:29:01;;;;;;;35.58;18.98;;;;;;;4.42;72.10;98585.13;4430692;32;33870;-75
2021/12/09 15:31:28;;;;;;;;;;;;;;;4.49;71.42;98587.91;4445377;32;34386;-75
2021/12/09 15:34:00;;;;;;;34.20;16.83;;;;;;;4.48;71.26;98588.94;4417197;32;33760;-75
2021/12/09 15:36:31;;;;;;;40.47;19.55;;;;;;;4.59;70.52;98591.91;4418969;32;34617;-74
2021/12/09 15:39:26;;;;;;;39.40;18.45;;;;;;;4.55;70.20;98589.81;4419536;32;33624;-76
2021/12/09 15:42:22;;;;;;;35.38;19.50;;;;;;;4.45;70.80;98584.72;4398558;32;33127;-75
2021/12/09 15:44:54;;;;;;;36.28;18.08;;;;;;;4.51;70.55;98583.94;4426148;32;35270;-75
2021/12/09 15:47:27;;;;;;;34.97;18.25;;;;;;;4.41;70.74;98588.03;4417989;32;32420;-75
2021/12/09 15:50:05;;;;;;;68.45;30.65;;;;;;;4.30;71.17;98571.25;4418327;32;32919;-75
2021/12/09 15:52:38;;;;;;;45.47;21.90;;;;;;;4.54;70.04;98577.28;4431983;32;33621;-75
2021/12/09 15:55:23;;;;;;;39.08;19.23;;;;;;;4.51;70.24;98562.22;4412932;32;34027;-75
2021/12/09 15:57:53;;;;;;;33.25;19.87;;;;;;;4.51;70.60;98564.09;4418799;32;33207;-75
2021/12/09 16:00:28;;;;;;;34.35;21.55;;;;;;;4.63;70.13;98560.59;4432148;32;33758;-75
2021/12/09 16:02:59;;;;;;;41.37;22.05;;;;;;;4.74;69.61;98559.19;4414792;32;33169;-75
2021/12/09 16:05:29;;;;;;;33.42;20.88;;;;;;;4.54;70.58;98563.69;4415856;32;34867;-75
2021/12/09 16:07:57;;;;;;;33.95;18.65;;;;;;;4.14;71.17;98566.09;4415320;32;33614;-75
2021/12/09 16:10:25;;;;;;;55.92;29.75;;;;;;;4.56;69.93;98556.16;4417633;32;34397;-75
2021/12/09 16:12:55;;;;;;;36.70;19.98;;;;;;;4.35;70.89;98565.22;4446360;32;34644;-76
2021/12/09 16:15:27;;;;;;;45.50;23.80;;;;;;;4.54;70.28;98560.97;4421089;32;32763;-75
2021/12/09 16:17:55;;;;;;;40.08;22.17;;;;;;;4.51;70.29;98564.09;4429339;32;34565;-75
2021/12/09 16:21:04;;;;;;;33.05;18.83;;;;;;;4.39;70.97;98558.34;4416377;32;31985;-75
2021/12/09 16:23:33;;;;;;;35.63;16.37;;;;;;;4.67;70.01;98560.19;4432173;32;34589;-75
2021/12/09 16:26:03;;;;;;;31.27;16.20;;;;;;;4.72;69.70;98558.56;4418886;32;34368;-75
2021/12/09 16:28:56;;;;;;;33.03;16.70;;;;;;;4.70;69.66;98571.50;4417506;32;34466;-74
2021/12/09 16:31:46;;;;;;;28.73;14.87;;;;;;;4.97;68.69;98562.47;4443099;32;31981;-74
2021/12/09 16:34:19;;;;;;;31.27;16.42;;;;;;;4.80;69.22;98554.84;4438884;32;33576;-74
2021/12/09 16:36:48;;;;;;;29.37;15.05;;;;;;;4.79;69.34;98558.59;4427715;32;33905;-75
2021/12/09 16:39:17;;;;;;;30.25;16.65;;;;;;;4.94;68.94;98570.19;4440441;32;33781;-75
2021/12/09 16:41:44;;;;;;;35.70;17.08;;;;;;;4.84;69.31;98559.69;4440859;32;33298;-75
2021/12/09 16:44:12;;;;;;;29.73;16.40;;;;;;;4.94;68.99;98564.75;4440644;32;32287;-75
2021/12/09 16:46:42;;;;;;;32.67;18.73;;;;;;;4.92;69.13;98564.97;4440754;32;34297;-75
2021/12/09 16:49:10;;;;;;;36.30;20.00;;;;;;;4.89;69.27;98565.38;4417294;32;33800;-75
2021/12/09 16:51:38;;;;;;;35.58;18.17;;;;;;;4.95;69.33;98577.31;4422093;32;33254;-75
2021/12/09 16:54:10;;;;;;;33.13;18.83;;;;;;;5.00;69.05;98582.16;4440802;32;33818;-75
2021/12/09 16:59:20;;;;;;;33.83;17.87;;;;;;;5.08;68.73;98584.72;4417615;32;33132;-75
2021/12/09 17:01:55;;;;;;;39.67;19.45;;;;;;;5.24;68.35;98574.31;4427292;32;31895;-75